Wetterdaten: Woche 30.08.10 - 05.09.10 (KW35)
Datum Zeit Temperatur Luftfeuchte Luftdruck Niederschlag Wind Richtung Sonnenschein Solar Taupunkt Windchill Windben
30.08.2010 00:00 12.2 C 95 % 1013.8 hPa 0.4 l/m 3.6 km/h (1 Bft) W 0.00 h 0 W/m 11.5 C 12.2 C 6.5 km/h (2 Bft)
30.08.2010 01:00 12.3 C 95 % 1012.8 hPa 0.2 l/m 5.8 km/h (2 Bft) W 0.00 h 0 W/m 11.5 C 12.3 C 10.7 km/h (2 Bft)
30.08.2010 02:00 12.1 C 95 % 1012.8 hPa 2.4 l/m 13.7 km/h (3 Bft) W 0.00 h 0 W/m 11.3 C 12.1 C 22.1 km/h (4 Bft)
30.08.2010 03:00 11.4 C 97 % 1012.5 hPa 1.4 l/m 15.5 km/h (3 Bft) W 0.00 h 0 W/m 10.9 C 11.4 C 25.3 km/h (4 Bft)
30.08.2010 04:00 10.3 C 96 % 1012.6 hPa 1.4 l/m 15.1 km/h (3 Bft) W 0.00 h 0 W/m 9.7 C 9.5 C 23.0 km/h (4 Bft)
30.08.2010 05:00 9.4 C 96 % 1013.1 hPa 0.0 l/m 7.0 km/h (2 Bft) W 0.00 h 0 W/m 8.8 C 8.5 C 11.4 km/h (2 Bft)
30.08.2010 06:00 9.4 C 95 % 1013.6 hPa 0.0 l/m 11.3 km/h (2 Bft) W 0.00 h 5 W/m 8.7 C 7.8 C 18.1 km/h (3 Bft)
30.08.2010 07:00 9.9 C 94 % 1014.3 hPa 0.0 l/m 8.5 km/h (2 Bft) W 0.08 h 40 W/m 9.0 C 9.1 C 15.0 km/h (3 Bft)
30.08.2010 08:00 10.3 C 90 % 1014.9 hPa 0.0 l/m 10.4 km/h (2 Bft) W 0.00 h 70 W/m 8.7 C 10.0 C 16.9 km/h (3 Bft)
30.08.2010 09:00 11.1 C 87 % 1015.4 hPa 0.0 l/m 5.7 km/h (1 Bft) W 0.03 h 109 W/m 8.9 C 11.1 C 10.2 km/h (2 Bft)
30.08.2010 10:00 11.1 C 86 % 1015.9 hPa 0.0 l/m 4.0 km/h (1 Bft) W-SW 0.00 h 53 W/m 8.8 C 11.1 C 8.0 km/h (2 Bft)
30.08.2010 11:00 11.2 C 86 % 1016.2 hPa 0.0 l/m 6.9 km/h (2 Bft) W-SW 0.00 h 104 W/m 9.0 C 11.2 C 11.7 km/h (2 Bft)
30.08.2010 12:00 12.3 C 82 % 1016.2 hPa 0.0 l/m 12.2 km/h (2 Bft) W 0.00 h 249 W/m 9.4 C 12.3 C 19.6 km/h (3 Bft)
30.08.2010 13:00 12.7 C 79 % 1016.2 hPa 0.2 l/m 16.5 km/h (3 Bft) W 0.00 h 276 W/m 9.2 C 12.7 C 24.9 km/h (4 Bft)
30.08.2010 14:00 12.3 C 84 % 1016.5 hPa 0.0 l/m 13.7 km/h (3 Bft) W 0.03 h 212 W/m 9.6 C 12.3 C 21.4 km/h (4 Bft)
30.08.2010 15:00 12.1 C 89 % 1016.4 hPa 0.6 l/m 10.3 km/h (2 Bft) W 0.00 h 186 W/m 10.2 C 12.1 C 16.9 km/h (3 Bft)
30.08.2010 16:00 12.0 C 89 % 1016.6 hPa 0.4 l/m 12.4 km/h (3 Bft) W 0.00 h 128 W/m 10.3 C 12.0 C 19.3 km/h (3 Bft)
30.08.2010 17:00 11.3 C 94 % 1017.0 hPa 0.6 l/m 11.3 km/h (2 Bft) W 0.00 h 91 W/m 10.4 C 11.3 C 17.9 km/h (3 Bft)
30.08.2010 18:00 11.2 C 95 % 1017.3 hPa 0.4 l/m 7.7 km/h (2 Bft) W 0.00 h 41 W/m 10.5 C 11.2 C 12.7 km/h (3 Bft)
30.08.2010 19:00 11.1 C 96 % 1017.3 hPa 0.2 l/m 4.4 km/h (1 Bft) W 0.00 h 21 W/m 10.5 C 11.1 C 8.3 km/h (2 Bft)
30.08.2010 20:00 11.2 C 95 % 1017.7 hPa 0.0 l/m 1.9 km/h (1 Bft) W-NW 0.00 h 0 W/m 10.4 C 11.2 C 4.2 km/h (1 Bft)
30.08.2010 21:00 11.3 C 96 % 1018.3 hPa 0.6 l/m 3.1 km/h (1 Bft) W 0.00 h 0 W/m 10.7 C 11.3 C 6.8 km/h (2 Bft)
30.08.2010 22:00 11.4 C 95 % 1018.3 hPa 0.0 l/m 3.0 km/h (1 Bft) SO 0.00 h 0 W/m 10.7 C 11.4 C 5.7 km/h (1 Bft)
30.08.2010 23:00 11.6 C 96 % 1018.6 hPa 0.0 l/m 4.9 km/h (1 Bft) W 0.00 h 0 W/m 11.0 C 11.6 C 9.1 km/h (2 Bft)
31.08.2010 00:00 11.7 C 96 % 1018.8 hPa 0.0 l/m 3.0 km/h (1 Bft) W-NW 0.00 h 0 W/m 11.1 C 11.7 C 5.9 km/h (2 Bft)
31.08.2010 01:00 11.7 C 95 % 1019.3 hPa 0.2 l/m 1.0 km/h (0 Bft) W 0.00 h 0 W/m 10.9 C 11.7 C 2.4 km/h (1 Bft)
31.08.2010 02:00 11.4 C 97 % 1019.6 hPa 0.2 l/m 1.2 km/h (1 Bft) W 0.00 h 0 W/m 10.8 C 11.4 C 3.3 km/h (1 Bft)
31.08.2010 03:00 11.5 C 96 % 1020.0 hPa 0.2 l/m 0.3 km/h (0 Bft) W-NW 0.00 h 0 W/m 10.9 C 11.5 C 0.8 km/h (0 Bft)
31.08.2010 04:00 11.4 C 97 % 1020.4 hPa 0.0 l/m 0.2 km/h (0 Bft) W 0.00 h 0 W/m 10.9 C 11.4 C 0.7 km/h (0 Bft)
31.08.2010 05:00 11.0 C 98 % 1020.4 hPa 0.2 l/m 0.0 km/h (0 Bft) N 0.00 h 0 W/m 10.6 C 11.0 C 0.0 km/h (0 Bft)
31.08.2010 06:00 10.8 C 98 % 1020.8 hPa 0.0 l/m 0.0 km/h (0 Bft) N 0.00 h 7 W/m 10.5 C 10.8 C 0.0 km/h (0 Bft)
31.08.2010 07:00 10.8 C 98 % 1021.4 hPa 0.0 l/m 0.0 km/h (0 Bft) N 0.03 h 46 W/m 10.5 C 10.8 C 0.0 km/h (0 Bft)
31.08.2010 08:00 11.7 C 97 % 1021.6 hPa 0.0 l/m 0.0 km/h (0 Bft) N 0.25 h 136 W/m 11.2 C 11.7 C 0.0 km/h (0 Bft)
31.08.2010 09:00 13.4 C 91 % 1021.9 hPa 0.0 l/m 0.0 km/h (0 Bft) N 0.75 h 352 W/m 12.0 C 13.4 C 0.0 km/h (0 Bft)
31.08.2010 10:00 13.7 C 89 % 1022.2 hPa 0.0 l/m 0.0 km/h (0 Bft) N 0.28 h 339 W/m 11.9 C 13.7 C 0.0 km/h (0 Bft)
31.08.2010 11:00 14.4 C 85 % 1022.3 hPa 0.0 l/m 1.8 km/h (1 Bft) W 0.20 h 389 W/m 11.8 C 14.4 C 3.5 km/h (1 Bft)
31.08.2010 12:00 15.1 C 81 % 1022.0 hPa 0.0 l/m 2.3 km/h (1 Bft) N-NW 0.25 h 421 W/m 11.9 C 15.1 C 4.3 km/h (1 Bft)
31.08.2010 13:00 16.7 C 73 % 1021.6 hPa 0.0 l/m 2.0 km/h (1 Bft) W 0.60 h 567 W/m 11.8 C 16.7 C 4.0 km/h (1 Bft)
31.08.2010 14:00 17.8 C 63 % 1021.2 hPa 0.0 l/m 3.9 km/h (1 Bft) W-NW 0.87 h 792 W/m 10.6 C 17.8 C 6.5 km/h (2 Bft)
31.08.2010 15:00 18.2 C 59 % 1020.9 hPa 0.0 l/m 3.2 km/h (1 Bft) N-NW 0.47 h 503 W/m 10.1 C 18.2 C 5.6 km/h (1 Bft)
31.08.2010 16:00 17.1 C 62 % 1020.8 hPa 0.0 l/m 1.1 km/h (1 Bft) N 0.00 h 158 W/m 9.7 C 17.1 C 3.2 km/h (1 Bft)
31.08.2010 17:00 16.9 C 72 % 1020.6 hPa 0.0 l/m 2.0 km/h (1 Bft) W-SW 0.53 h 259 W/m 11.8 C 16.9 C 3.7 km/h (1 Bft)
31.08.2010 18:00 16.5 C 64 % 1020.6 hPa 0.0 l/m 2.1 km/h (1 Bft) N 0.12 h 92 W/m 9.6 C 16.5 C 4.4 km/h (1 Bft)
31.08.2010 19:00 15.0 C 70 % 1020.6 hPa 0.0 l/m 1.1 km/h (1 Bft) O-NO 0.00 h 24 W/m 9.7 C 15.0 C 3.2 km/h (1 Bft)
31.08.2010 20:00 13.0 C 82 % 1020.9 hPa 0.0 l/m 1.0 km/h (0 Bft) SO 0.00 h 5 W/m 10.1 C 13.0 C 2.5 km/h (1 Bft)
31.08.2010 21:00 11.5 C 86 % 1021.4 hPa 0.0 l/m 1.3 km/h (1 Bft) SO 0.00 h 0 W/m 9.1 C 11.5 C 2.3 km/h (1 Bft)
31.08.2010 22:00 10.2 C 90 % 1021.4 hPa 0.0 l/m 1.9 km/h (1 Bft) O 0.00 h 0 W/m 8.7 C 10.2 C 3.0 km/h (1 Bft)
31.08.2010 23:00 9.3 C 93 % 1021.2 hPa 0.0 l/m 0.8 km/h (0 Bft) O 0.00 h 0 W/m 8.3 C 9.3 C 1.7 km/h (1 Bft)
01.09.2010 00:00 8.8 C 94 % 1021.2 hPa 0.0 l/m 0.1 km/h (0 Bft) O 0.00 h 0 W/m 8.0 C 8.8 C 0.4 km/h (0 Bft)
01.09.2010 01:00 8.3 C 96 % 1020.9 hPa 0.0 l/m 1.1 km/h (1 Bft) O 0.00 h 0 W/m 7.6 C 8.3 C 1.8 km/h (1 Bft)
01.09.2010 02:00 7.9 C 96 % 1020.4 hPa 0.0 l/m 0.2 km/h (0 Bft) O 0.00 h 0 W/m 7.2 C 7.9 C 0.7 km/h (0 Bft)
01.09.2010 03:00 7.5 C 96 % 1020.1 hPa 0.0 l/m 0.1 km/h (0 Bft) O 0.00 h 0 W/m 6.9 C 7.5 C 0.4 km/h (0 Bft)
01.09.2010 04:00 7.3 C 96 % 1019.8 hPa 0.0 l/m 0.0 km/h (0 Bft) O 0.00 h 0 W/m 6.7 C 7.3 C 0.2 km/h (0 Bft)
01.09.2010 05:00 6.9 C 96 % 1019.4 hPa 0.0 l/m 0.0 km/h (0 Bft) N 0.00 h 0 W/m 6.3 C 6.9 C 0.1 km/h (0 Bft)
01.09.2010 06:00 6.6 C 97 % 1019.4 hPa 0.0 l/m 0.0 km/h (0 Bft) N 0.00 h 7 W/m 6.1 C 6.6 C 0.4 km/h (0 Bft)
01.09.2010 07:00 6.8 C 97 % 1019.6 hPa 0.0 l/m 0.1 km/h (0 Bft) O 0.02 h 24 W/m 6.4 C 6.8 C 0.2 km/h (0 Bft)
01.09.2010 08:00 9.2 C 95 % 1019.5 hPa 0.0 l/m 0.0 km/h (0 Bft) N 1.00 h 223 W/m 8.4 C 9.2 C 0.1 km/h (0 Bft)
01.09.2010 09:00 12.4 C 86 % 1019.4 hPa 0.0 l/m 0.4 km/h (0 Bft) O 1.00 h 391 W/m 10.1 C 12.4 C 1.8 km/h (1 Bft)
01.09.2010 10:00 14.4 C 78 % 1019.3 hPa 0.0 l/m 4.4 km/h (1 Bft) O-SO 1.00 h 541 W/m 10.7 C 14.4 C 8.3 km/h (2 Bft)
01.09.2010 11:00 16.2 C 70 % 1019.0 hPa 0.0 l/m 6.2 km/h (2 Bft) O-SO 1.00 h 657 W/m 10.8 C 16.2 C 10.3 km/h (2 Bft)
01.09.2010 12:00 17.6 C 62 % 1018.5 hPa 0.0 l/m 7.2 km/h (2 Bft) O-SO 1.00 h 729 W/m 10.2 C 17.6 C 12.3 km/h (3 Bft)
01.09.2010 13:00 18.7 C 53 % 1017.8 hPa 0.0 l/m 7.4 km/h (2 Bft) O-SO 1.00 h 752 W/m 9.0 C 18.7 C 12.9 km/h (3 Bft)
01.09.2010 14:00 19.2 C 51 % 1017.5 hPa 0.0 l/m 6.2 km/h (2 Bft) O-SO 1.00 h 719 W/m 9.0 C 19.2 C 11.5 km/h (2 Bft)
01.09.2010 15:00 19.8 C 52 % 1017.1 hPa 0.0 l/m 6.0 km/h (2 Bft) O-SO 1.00 h 639 W/m 9.5 C 19.8 C 11.5 km/h (2 Bft)
01.09.2010 16:00 20.0 C 48 % 1016.6 hPa 0.0 l/m 5.1 km/h (1 Bft) O-SO 1.00 h 518 W/m 8.7 C 20.0 C 9.8 km/h (2 Bft)
01.09.2010 17:00 19.8 C 46 % 1016.3 hPa 0.0 l/m 4.8 km/h (1 Bft) O-SO 1.00 h 366 W/m 8.0 C 19.8 C 9.2 km/h (2 Bft)
01.09.2010 18:00 19.3 C 48 % 1016.4 hPa 0.0 l/m 3.1 km/h (1 Bft) O-SO 0.98 h 193 W/m 7.9 C 19.3 C 6.7 km/h (2 Bft)
01.09.2010 19:00 17.9 C 55 % 1016.5 hPa 0.0 l/m 1.3 km/h (1 Bft) O-SO 0.40 h 53 W/m 8.8 C 17.9 C 3.2 km/h (1 Bft)
01.09.2010 20:00 15.1 C 70 % 1016.7 hPa 0.0 l/m 1.2 km/h (1 Bft) O-SO 0.00 h 6 W/m 9.7 C 15.1 C 2.4 km/h (1 Bft)
01.09.2010 21:00 13.2 C 80 % 1017.1 hPa 0.0 l/m 0.1 km/h (0 Bft) O-SO 0.00 h 0 W/m 9.8 C 13.2 C 0.6 km/h (0 Bft)
01.09.2010 22:00 12.3 C 85 % 1017.2 hPa 0.0 l/m 0.0 km/h (0 Bft) N 0.00 h 0 W/m 9.8 C 12.3 C 0.4 km/h (0 Bft)
01.09.2010 23:00 11.3 C 88 % 1017.4 hPa 0.0 l/m 0.8 km/h (0 Bft) O-SO 0.00 h 0 W/m 9.3 C 11.3 C 1.6 km/h (1 Bft)
02.09.2010 00:00 10.9 C 90 % 1017.3 hPa 0.0 l/m 0.0 km/h (0 Bft) O-SO 0.00 h 0 W/m 9.3 C 10.9 C 0.5 km/h (0 Bft)
02.09.2010 01:00 10.5 C 91 % 1017.0 hPa 0.0 l/m 0.0 km/h (0 Bft) N 0.00 h 0 W/m 9.0 C 10.5 C 0.2 km/h (0 Bft)
02.09.2010 02:00 10.1 C 92 % 1016.7 hPa 0.0 l/m 1.9 km/h (1 Bft) O 0.00 h 0 W/m 8.9 C 10.1 C 3.1 km/h (1 Bft)
02.09.2010 03:00 9.6 C 93 % 1016.6 hPa 0.0 l/m 1.9 km/h (1 Bft) O-SO 0.00 h 0 W/m 8.5 C 9.5 C 2.8 km/h (1 Bft)
02.09.2010 04:00 9.2 C 94 % 1016.6 hPa 0.0 l/m 0.4 km/h (0 Bft) O-SO 0.00 h 0 W/m 8.3 C 9.2 C 1.4 km/h (1 Bft)
02.09.2010 05:00 8.8 C 95 % 1016.5 hPa 0.0 l/m 0.2 km/h (0 Bft) O-SO 0.00 h 0 W/m 8.0 C 8.8 C 0.7 km/h (0 Bft)
02.09.2010 06:00 8.4 C 96 % 1016.7 hPa 0.0 l/m 0.0 km/h (0 Bft) N 0.05 h 8 W/m 7.8 C 8.4 C 0.1 km/h (0 Bft)
02.09.2010 07:00 8.6 C 97 % 1017.0 hPa 0.0 l/m 0.0 km/h (0 Bft) N 0.00 h 37 W/m 8.1 C 8.6 C 0.0 km/h (0 Bft)
02.09.2010 08:00 11.0 C 94 % 1017.3 hPa 0.0 l/m 0.0 km/h (0 Bft) N 1.00 h 214 W/m 10.1 C 11.0 C 0.1 km/h (0 Bft)
02.09.2010 09:00 13.6 C 85 % 1017.3 hPa 0.0 l/m 0.6 km/h (0 Bft) O-SO 1.00 h 329 W/m 11.1 C 13.6 C 1.8 km/h (1 Bft)
02.09.2010 10:00 15.5 C 76 % 1017.3 hPa 0.0 l/m 1.7 km/h (1 Bft) O-SO 1.00 h 494 W/m 11.2 C 15.5 C 3.7 km/h (1 Bft)
02.09.2010 11:00 16.8 C 73 % 1017.0 hPa 0.0 l/m 2.3 km/h (1 Bft) SO 1.00 h 583 W/m 12.0 C 16.8 C 4.5 km/h (1 Bft)
02.09.2010 12:00 18.5 C 68 % 1016.5 hPa 0.0 l/m 2.6 km/h (1 Bft) O-SO 1.00 h 668 W/m 12.5 C 18.5 C 5.2 km/h (1 Bft)
02.09.2010 13:00 19.7 C 62 % 1016.2 hPa 0.0 l/m 3.8 km/h (1 Bft) O-SO 0.95 h 633 W/m 12.1 C 19.7 C 7.2 km/h (2 Bft)
02.09.2010 14:00 20.7 C 57 % 1015.9 hPa 0.0 l/m 5.2 km/h (1 Bft) SO 1.00 h 665 W/m 11.9 C 20.7 C 8.8 km/h (2 Bft)
02.09.2010 15:00 21.2 C 54 % 1015.4 hPa 0.0 l/m 4.8 km/h (1 Bft) O-SO 1.00 h 596 W/m 11.5 C 21.2 C 8.0 km/h (2 Bft)
02.09.2010 16:00 21.5 C 54 % 1015.3 hPa 0.0 l/m 4.3 km/h (1 Bft) O-SO 1.00 h 449 W/m 11.7 C 21.5 C 7.3 km/h (2 Bft)
02.09.2010 17:00 21.1 C 55 % 1015.2 hPa 0.0 l/m 3.2 km/h (1 Bft) O-SO 0.68 h 267 W/m 11.6 C 21.1 C 5.2 km/h (1 Bft)
02.09.2010 18:00 20.2 C 62 % 1015.4 hPa 0.0 l/m 1.5 km/h (1 Bft) SO 0.00 h 123 W/m 12.7 C 20.2 C 3.0 km/h (1 Bft)
02.09.2010 19:00 18.6 C 73 % 1015.6 hPa 0.0 l/m 0.8 km/h (0 Bft) SO 0.08 h 40 W/m 13.7 C 18.6 C 1.6 km/h (1 Bft)
02.09.2010 20:00 16.1 C 83 % 1016.2 hPa 0.0 l/m 3.3 km/h (1 Bft) O-SO 0.00 h 6 W/m 13.2 C 16.1 C 4.6 km/h (1 Bft)
02.09.2010 21:00 14.4 C 88 % 1016.7 hPa 0.0 l/m 2.8 km/h (1 Bft) O 0.00 h 0 W/m 12.4 C 14.4 C 4.0 km/h (1 Bft)
02.09.2010 22:00 13.4 C 90 % 1017.0 hPa 0.0 l/m 2.6 km/h (1 Bft) O 0.00 h 0 W/m 11.8 C 13.4 C 3.7 km/h (1 Bft)
02.09.2010 23:00 12.7 C 92 % 1017.1 hPa 0.0 l/m 1.3 km/h (1 Bft) O 0.00 h 0 W/m 11.4 C 12.7 C 2.5 km/h (1 Bft)
03.09.2010 00:00 12.4 C 94 % 1017.0 hPa 0.0 l/m 0.2 km/h (0 Bft) O 0.00 h 0 W/m 11.4 C 12.4 C 0.7 km/h (0 Bft)
03.09.2010 01:00 12.2 C 94 % 1017.0 hPa 0.0 l/m 0.0 km/h (0 Bft) N 0.00 h 0 W/m 11.3 C 12.2 C 0.3 km/h (0 Bft)
03.09.2010 02:00 12.4 C 95 % 1016.8 hPa 0.0 l/m 0.5 km/h (0 Bft) O 0.00 h 0 W/m 11.6 C 12.4 C 1.1 km/h (1 Bft)
03.09.2010 03:00 12.6 C 95 % 1016.8 hPa 0.0 l/m 0.0 km/h (0 Bft) N 0.00 h 0 W/m 11.8 C 12.6 C 0.3 km/h (0 Bft)
03.09.2010 04:00 12.3 C 95 % 1016.9 hPa 0.0 l/m 0.0 km/h (0 Bft) N 0.00 h 0 W/m 11.5 C 12.3 C 0.0 km/h (0 Bft)
03.09.2010 05:00 11.9 C 96 % 1016.9 hPa 0.0 l/m 0.0 km/h (0 Bft) N 0.00 h 0 W/m 11.3 C 11.9 C 0.0 km/h (0 Bft)
03.09.2010 06:00 11.1 C 96 % 1017.2 hPa 0.0 l/m 0.0 km/h (0 Bft) N 0.00 h 6 W/m 10.6 C 11.1 C 0.0 km/h (0 Bft)
03.09.2010 07:00 11.1 C 97 % 1017.8 hPa 0.0 l/m 0.0 km/h (0 Bft) N 0.00 h 34 W/m 10.7 C 11.1 C 0.0 km/h (0 Bft)
03.09.2010 08:00 12.6 C 96 % 1018.3 hPa 0.0 l/m 0.0 km/h (0 Bft) N 0.12 h 129 W/m 11.9 C 12.6 C 0.0 km/h (0 Bft)
03.09.2010 09:00 14.5 C 90 % 1018.4 hPa 0.0 l/m 0.0 km/h (0 Bft) N 0.47 h 273 W/m 13.0 C 14.5 C 0.0 km/h (0 Bft)
03.09.2010 10:00 17.1 C 80 % 1018.2 hPa 0.0 l/m 0.0 km/h (0 Bft) N 0.93 h 486 W/m 13.6 C 17.1 C 0.0 km/h (0 Bft)
03.09.2010 11:00 19.1 C 74 % 1017.9 hPa 0.0 l/m 1.0 km/h (0 Bft) O-SO 1.00 h 629 W/m 14.2 C 19.1 C 2.5 km/h (1 Bft)
03.09.2010 12:00 20.1 C 71 % 1017.5 hPa 0.0 l/m 4.1 km/h (1 Bft) O-SO 1.00 h 704 W/m 14.7 C 20.1 C 7.0 km/h (2 Bft)
03.09.2010 13:00 21.4 C 67 % 1016.9 hPa 0.0 l/m 3.3 km/h (1 Bft) O-SO 1.00 h 735 W/m 14.9 C 21.4 C 7.0 km/h (2 Bft)
03.09.2010 14:00 22.1 C 61 % 1016.5 hPa 0.0 l/m 3.5 km/h (1 Bft) O-SO 1.00 h 698 W/m 14.3 C 22.1 C 6.1 km/h (2 Bft)
03.09.2010 15:00 22.7 C 59 % 1016.0 hPa 0.0 l/m 2.9 km/h (1 Bft) O-SO 1.00 h 617 W/m 14.3 C 22.7 C 5.5 km/h (1 Bft)
03.09.2010 16:00 22.8 C 56 % 1015.7 hPa 0.0 l/m 2.4 km/h (1 Bft) O-SO 1.00 h 497 W/m 13.6 C 22.8 C 4.8 km/h (1 Bft)
03.09.2010 17:00 22.8 C 56 % 1015.7 hPa 0.0 l/m 1.1 km/h (1 Bft) O-SO 0.87 h 327 W/m 13.6 C 22.8 C 2.9 km/h (1 Bft)
03.09.2010 18:00 22.2 C 58 % 1015.6 hPa 0.0 l/m 2.3 km/h (1 Bft) O-SO 0.82 h 164 W/m 13.6 C 22.2 C 4.2 km/h (1 Bft)
03.09.2010 19:00 20.7 C 67 % 1015.7 hPa 0.0 l/m 1.7 km/h (1 Bft) O-SO 0.70 h 50 W/m 14.3 C 20.7 C 3.2 km/h (1 Bft)
03.09.2010 20:00 18.7 C 78 % 1016.0 hPa 0.0 l/m 0.9 km/h (0 Bft) O-SO 0.00 h 0 W/m 14.7 C 18.7 C 2.1 km/h (1 Bft)
03.09.2010 21:00 17.2 C 85 % 1016.6 hPa 0.0 l/m 1.3 km/h (1 Bft) O 0.00 h 0 W/m 14.7 C 17.2 C 2.2 km/h (1 Bft)
03.09.2010 22:00 15.8 C 89 % 1016.8 hPa 0.0 l/m 1.3 km/h (1 Bft) O 0.00 h 0 W/m 14.0 C 15.8 C 2.3 km/h (1 Bft)
03.09.2010 23:00 15.1 C 91 % 1016.9 hPa 0.0 l/m 1.4 km/h (1 Bft) O 0.00 h 0 W/m 13.7 C 15.1 C 2.2 km/h (1 Bft)
04.09.2010 00:00 14.3 C 93 % 1017.0 hPa 0.0 l/m 2.4 km/h (1 Bft) O 0.00 h 0 W/m 13.1 C 14.3 C 3.6 km/h (1 Bft)
04.09.2010 01:00 13.6 C 94 % 1016.8 hPa 0.0 l/m 0.7 km/h (0 Bft) O 0.00 h 0 W/m 12.7 C 13.6 C 2.0 km/h (1 Bft)
04.09.2010 02:00 13.0 C 95 % 1016.6 hPa 0.0 l/m 0.7 km/h (0 Bft) O 0.00 h 0 W/m 12.2 C 13.0 C 1.6 km/h (1 Bft)
04.09.2010 03:00 12.4 C 96 % 1016.2 hPa 0.0 l/m 0.2 km/h (0 Bft) O 0.00 h 0 W/m 11.8 C 12.4 C 0.8 km/h (0 Bft)
04.09.2010 04:00 11.8 C 97 % 1016.3 hPa 0.0 l/m 0.3 km/h (0 Bft) O 0.00 h 0 W/m 11.2 C 11.8 C 1.1 km/h (1 Bft)
04.09.2010 05:00 11.6 C 97 % 1016.3 hPa 0.0 l/m 0.8 km/h (0 Bft) O 0.00 h 0 W/m 11.2 C 11.6 C 1.9 km/h (1 Bft)
04.09.2010 06:00 11.2 C 97 % 1016.6 hPa 0.0 l/m 0.2 km/h (0 Bft) O 0.00 h 6 W/m 10.8 C 11.2 C 0.8 km/h (0 Bft)
04.09.2010 07:00 11.3 C 97 % 1017.3 hPa 0.0 l/m 0.5 km/h (0 Bft) O 0.00 h 36 W/m 10.8 C 11.3 C 1.4 km/h (1 Bft)
04.09.2010 08:00 13.0 C 97 % 1017.6 hPa 0.2 l/m 0.0 km/h (0 Bft) N 0.52 h 150 W/m 12.6 C 13.0 C 0.1 km/h (0 Bft)
04.09.2010 09:00 15.1 C 92 % 1017.6 hPa 0.0 l/m 0.7 km/h (0 Bft) N-NW 0.57 h 262 W/m 13.8 C 15.1 C 1.9 km/h (1 Bft)
04.09.2010 10:00 16.8 C 87 % 1017.9 hPa 0.0 l/m 1.2 km/h (1 Bft) N-NW 0.87 h 463 W/m 14.6 C 16.8 C 2.6 km/h (1 Bft)
04.09.2010 11:00 19.0 C 81 % 1017.7 hPa 0.0 l/m 1.4 km/h (1 Bft) W-NW 1.00 h 623 W/m 15.6 C 19.0 C 3.4 km/h (1 Bft)
04.09.2010 12:00 20.6 C 73 % 1017.3 hPa 0.0 l/m 2.1 km/h (1 Bft) W-SW 0.75 h 630 W/m 15.4 C 20.6 C 4.1 km/h (1 Bft)
04.09.2010 13:00 20.8 C 69 % 1017.1 hPa 0.0 l/m 1.9 km/h (1 Bft) W 0.65 h 617 W/m 14.8 C 20.8 C 3.9 km/h (1 Bft)
04.09.2010 14:00 22.1 C 60 % 1016.8 hPa 0.0 l/m 2.9 km/h (1 Bft) W-NW 0.87 h 731 W/m 13.9 C 22.1 C 5.3 km/h (1 Bft)
04.09.2010 15:00 22.3 C 59 % 1016.8 hPa 0.0 l/m 3.3 km/h (1 Bft) W 0.68 h 510 W/m 13.8 C 22.3 C 5.9 km/h (2 Bft)
04.09.2010 16:00 23.5 C 52 % 1016.6 hPa 0.0 l/m 5.8 km/h (2 Bft) W 0.98 h 565 W/m 13.1 C 23.5 C 8.9 km/h (2 Bft)
04.09.2010 17:00 22.9 C 52 % 1016.8 hPa 0.0 l/m 5.2 km/h (1 Bft) W 0.92 h 345 W/m 12.5 C 22.9 C 8.3 km/h (2 Bft)
04.09.2010 18:00 21.8 C 58 % 1016.9 hPa 0.0 l/m 4.9 km/h (1 Bft) W 0.78 h 162 W/m 13.2 C 21.8 C 7.8 km/h (2 Bft)
04.09.2010 19:00 19.9 C 61 % 1017.3 hPa 0.0 l/m 4.8 km/h (1 Bft) W-NW 0.17 h 37 W/m 12.1 C 19.9 C 8.3 km/h (2 Bft)
04.09.2010 20:00 18.7 C 65 % 1017.7 hPa 0.0 l/m 2.7 km/h (1 Bft) N-NO 0.00 h 0 W/m 12.1 C 18.7 C 6.0 km/h (2 Bft)
04.09.2010 21:00 17.2 C 74 % 1018.3 hPa 0.0 l/m 0.0 km/h (0 Bft) N-NO 0.00 h 0 W/m 12.6 C 17.2 C 0.5 km/h (0 Bft)
04.09.2010 22:00 16.4 C 79 % 1018.5 hPa 0.0 l/m 0.1 km/h (0 Bft) N-NO 0.00 h 0 W/m 12.7 C 16.4 C 0.9 km/h (0 Bft)
04.09.2010 23:00 14.9 C 85 % 1018.3 hPa 0.0 l/m 0.0 km/h (0 Bft) N 0.00 h 0 W/m 12.4 C 14.9 C 0.2 km/h (0 Bft)
05.09.2010 00:00 13.9 C 89 % 1018.2 hPa 0.0 l/m 0.1 km/h (0 Bft) N-NO 0.00 h 0 W/m 12.0 C 13.9 C 0.3 km/h (0 Bft)
05.09.2010 01:00 13.1 C 90 % 1017.9 hPa 0.0 l/m 0.0 km/h (0 Bft) N 0.00 h 0 W/m 11.6 C 13.1 C 0.1 km/h (0 Bft)
05.09.2010 02:00 12.7 C 90 % 1017.9 hPa 0.0 l/m 0.2 km/h (0 Bft) N-NO 0.00 h 0 W/m 11.2 C 12.7 C 0.9 km/h (0 Bft)
05.09.2010 03:00 11.9 C 92 % 1017.8 hPa 0.0 l/m 0.0 km/h (0 Bft) N 0.00 h 0 W/m 10.6 C 11.9 C 0.5 km/h (0 Bft)
05.09.2010 04:00 11.4 C 92 % 1017.9 hPa 0.0 l/m 1.5 km/h (1 Bft) O-SO 0.00 h 0 W/m 10.2 C 11.4 C 3.0 km/h (1 Bft)
05.09.2010 05:00 10.8 C 94 % 1017.8 hPa 0.0 l/m 0.6 km/h (0 Bft) O 0.00 h 0 W/m 9.8 C 10.8 C 1.3 km/h (1 Bft)
05.09.2010 06:00 10.2 C 95 % 1018.1 hPa 0.0 l/m 0.2 km/h (0 Bft) O 0.00 h 6 W/m 9.4 C 10.2 C 0.9 km/h (0 Bft)
05.09.2010 07:00 10.1 C 95 % 1018.3 hPa 0.0 l/m 0.0 km/h (0 Bft) N 0.02 h 24 W/m 9.4 C 10.1 C 0.1 km/h (0 Bft)
05.09.2010 08:00 12.2 C 93 % 1018.5 hPa 0.0 l/m 0.0 km/h (0 Bft) N 0.87 h 185 W/m 11.0 C 12.2 C 0.2 km/h (0 Bft)
05.09.2010 09:00 14.7 C 86 % 1018.4 hPa 0.0 l/m 0.3 km/h (0 Bft) O 1.00 h 358 W/m 12.3 C 14.7 C 1.6 km/h (1 Bft)
05.09.2010 10:00 17.2 C 76 % 1018.2 hPa 0.0 l/m 1.1 km/h (1 Bft) N-NW 0.97 h 479 W/m 12.8 C 17.2 C 3.0 km/h (1 Bft)
05.09.2010 11:00 18.6 C 72 % 1017.8 hPa 0.0 l/m 1.2 km/h (1 Bft) SO 0.88 h 593 W/m 13.4 C 18.6 C 3.4 km/h (1 Bft)
05.09.2010 12:00 20.1 C 66 % 1017.4 hPa 0.0 l/m 3.1 km/h (1 Bft) O-SO 1.00 h 703 W/m 13.5 C 20.1 C 6.3 km/h (2 Bft)
05.09.2010 13:00 21.0 C 56 % 1017.0 hPa 0.0 l/m 4.8 km/h (1 Bft) N-NO 1.00 h 688 W/m 12.0 C 21.0 C 9.5 km/h (2 Bft)
05.09.2010 14:00 21.2 C 54 % 1016.9 hPa 0.0 l/m 2.9 km/h (1 Bft) O-SO 0.95 h 601 W/m 11.6 C 21.2 C 6.1 km/h (2 Bft)
05.09.2010 15:00 21.7 C 54 % 1016.4 hPa 0.0 l/m 4.4 km/h (1 Bft) O-SO 1.00 h 590 W/m 12.0 C 21.7 C 7.3 km/h (2 Bft)
05.09.2010 16:00 21.5 C 54 % 1016.5 hPa 0.0 l/m 5.1 km/h (1 Bft) O-SO 0.77 h 384 W/m 11.6 C 21.5 C 8.2 km/h (2 Bft)
05.09.2010 17:00 21.2 C 54 % 1016.6 hPa 0.0 l/m 4.3 km/h (1 Bft) O-SO 0.75 h 288 W/m 11.4 C 21.2 C 7.0 km/h (2 Bft)
05.09.2010 18:00 20.6 C 56 % 1016.5 hPa 0.0 l/m 3.5 km/h (1 Bft) O-SO 0.43 h 123 W/m 11.4 C 20.6 C 5.7 km/h (1 Bft)
05.09.2010 19:00 18.3 C 66 % 1016.7 hPa 0.0 l/m 2.2 km/h (1 Bft) O-SO 0.28 h 30 W/m 11.9 C 18.3 C 3.7 km/h (1 Bft)
05.09.2010 20:00 16.4 C 72 % 1017.1 hPa 0.0 l/m 2.2 km/h (1 Bft) O-SO 0.00 h 0 W/m 11.4 C 16.4 C 3.5 km/h (1 Bft)
05.09.2010 21:00 14.6 C 81 % 1017.7 hPa 0.0 l/m 0.2 km/h (0 Bft) O 0.00 h 0 W/m 11.4 C 14.6 C 0.8 km/h (0 Bft)
05.09.2010 22:00 13.8 C 85 % 1017.6 hPa 0.0 l/m 0.0 km/h (0 Bft) O 0.00 h 0 W/m 11.4 C 13.8 C 0.5 km/h (0 Bft)
05.09.2010 23:00 13.2 C 88 % 1017.5 hPa 0.0 l/m 0.1 km/h (0 Bft) N-NO 0.00 h 0 W/m 11.2 C 13.2 C 0.6 km/h (0 Bft)
Min-Datum _ 01.09.10 01.09.10 30.08.10 - 30.08.10 - - - 01.09.10 01.09.10 30.08.10
_ Min-Zeit 06:13 16:37 04:15 - 00:27 - - - 06:13 06:13 00:48
Minimum _ 6.3 C 44 % 1012.3 hPa - 0.0 km/h (0 Bft) - - - 5.9 C 6.3 C 0.0 km/h (0 Bft)
Max-Datum _ 04.09.10 04.09.10 31.08.10 30.08.10 30.08.10 - 30.08.10 31.08.10 04.09.10 04.09.10 30.08.10
_ Max-Zeit 16:18 08:29 11:15 02:07 04:13 - 07:16 11:47 12:05 16:17 03:51
Maximum _ 24.2 C 100 % 1022.5 hPa 2.4 l/m 32.2 km/h
W (5 Bft)
- 0.02 h 963 W/m 16.7 C 24.2 C 46.9 km/h
W (6 Bft)
Durchschnitt _ 14.6 C 81 % 1017.6 hPa #9.8 l/m 2.7 km/h (1 Bft) O-SO #54:14 h 318 W/m 11.0 C 14.5 C 4.8 km/h (1 Bft)
© Kaiko 2010